createdAt,value
2022-09-28T00:00:01.712Z,99380.66
2022-09-28T00:05:14.378Z,99382.34
2022-09-28T00:10:16.032Z,99371.13
2022-09-28T00:15:17.797Z,99372.09
2022-09-28T00:20:19.717Z,99379.09
2022-09-28T00:25:22.005Z,99376.63
2022-09-28T00:30:23.985Z,99371.56
2022-09-28T00:35:25.566Z,99372.53
2022-09-28T00:40:27.110Z,99359.63
2022-09-28T00:45:28.814Z,99353.63
2022-09-28T00:50:35.363Z,99345.06
2022-09-28T00:55:42.736Z,99348.59
2022-09-28T01:00:44.499Z,99340.03
2022-09-28T01:05:48.367Z,99334.88
2022-09-28T01:10:51.172Z,99332.34
2022-09-28T01:16:04.379Z,99335.03
2022-09-28T01:21:18.695Z,99330.75
2022-09-28T01:26:35.938Z,99326.44
2022-09-28T01:31:44.086Z,99328.22
2022-09-28T01:36:51.029Z,99316.06
2022-09-28T01:41:55.797Z,99313.50
2022-09-28T01:47:04.311Z,99310.88
2022-09-28T01:52:17.243Z,99319.53
2022-09-28T01:57:34.139Z,99312.63
2022-09-28T02:02:42.561Z,99313.50
2022-09-28T02:07:48.395Z,99302.28
2022-09-28T02:13:40.556Z,99304.91
2022-09-28T02:18:43.402Z,99304.94
2022-09-28T02:23:58.053Z,99299.78
2022-09-28T02:29:00.104Z,99294.53
2022-09-28T02:34:01.814Z,99303.16
2022-09-28T02:39:03.707Z,99296.16
2022-09-28T02:44:20.528Z,99303.06
2022-09-28T02:49:37.269Z,99294.44
2022-09-28T02:55:06.074Z,99303.97
2022-09-28T03:00:12.630Z,99297.13
2022-09-28T03:05:22.963Z,99294.63
2022-09-28T03:10:46.677Z,99299.81
2022-09-28T03:15:49.686Z,99301.59
2022-09-28T03:20:52.544Z,99299.03
2022-09-28T03:25:54.792Z,99299.97
2022-09-28T03:30:56.775Z,99294.00
2022-09-28T03:35:58.755Z,99300.97
2022-09-28T03:41:01.136Z,99304.50
2022-09-28T03:46:09.002Z,99305.41
2022-09-28T03:51:16.296Z,99299.34
2022-09-28T03:56:18.120Z,99302.88
2022-09-28T04:01:20.633Z,99303.72
2022-09-28T04:06:23.434Z,99300.22
2022-09-28T04:11:25.395Z,99303.69
2022-09-28T04:16:27.418Z,99301.94
2022-09-28T04:21:37.398Z,99302.88
2022-09-28T04:26:44.057Z,99301.13
2022-09-28T04:31:51.909Z,99299.38
2022-09-28T04:36:54.834Z,99303.72
2022-09-28T04:41:56.435Z,99301.13
2022-09-28T04:47:00.695Z,99302.88
2022-09-28T04:52:23.561Z,99304.59
2022-09-28T04:57:25.189Z,99302.94
2022-09-28T05:02:27.754Z,99298.63
2022-09-28T05:07:47.841Z,99299.56
2022-09-28T05:12:49.508Z,99307.41
2022-09-28T05:17:53.061Z,99312.69
2022-09-28T05:23:00.859Z,99307.53
2022-09-28T05:28:03.387Z,99308.38
2022-09-28T05:33:24.073Z,99305.81
2022-09-28T05:38:37.312Z,99298.06
2022-09-28T05:43:39.380Z,99305.91
2022-09-28T05:48:41.000Z,99305.09
2022-09-28T05:53:42.732Z,99300.84
2022-09-28T05:58:44.800Z,99306.06
2022-09-28T06:03:47.335Z,99304.38
2022-09-28T06:08:50.326Z,99295.75
2022-09-28T06:14:10.848Z,99300.97
2022-09-28T06:19:13.628Z,99309.69
2022-09-28T06:24:35.120Z,99317.56
2022-09-28T06:29:36.925Z,99323.63
2022-09-28T06:34:39.032Z,99320.19
2022-09-28T06:39:41.201Z,99323.66
2022-09-28T06:44:42.845Z,99328.88
2022-09-28T06:50:12.070Z,99333.28
2022-09-28T06:55:46.006Z,99341.19
2022-09-28T07:00:50.299Z,99334.25
2022-09-28T07:05:54.666Z,99332.56
2022-09-28T07:11:16.866Z,99340.41
2022-09-28T07:16:42.452Z,99340.50
2022-09-28T07:22:03.137Z,99344.00
2022-09-28T07:27:07.027Z,99357.94
2022-09-28T07:32:28.938Z,99357.94
2022-09-28T07:37:31.200Z,99364.19
2022-09-28T07:42:32.996Z,99363.38
2022-09-28T07:47:35.335Z,99375.53
2022-09-28T07:52:58.699Z,99383.44
2022-09-28T07:58:07.832Z,99381.69
2022-09-28T08:03:32.954Z,99377.41
2022-09-28T08:08:35.644Z,99383.50
2022-09-28T08:13:38.300Z,99390.47
2022-09-28T08:19:06.266Z,99399.22
2022-09-28T08:24:07.951Z,99406.19
2022-09-28T08:29:09.936Z,99400.13
2022-09-28T08:34:38.745Z,99411.47
2022-09-28T08:39:56.290Z,99414.06
2022-09-28T08:45:24.917Z,99413.22
2022-09-28T08:51:01.826Z,99420.22
2022-09-28T08:56:31.646Z,99432.47
2022-09-28T09:01:39.019Z,99441.19
2022-09-28T09:07:14.606Z,99440.34
2022-09-28T09:12:50.263Z,99452.53
2022-09-28T09:18:20.017Z,99455.13
2022-09-28T09:23:57.761Z,99468.19
2022-09-28T09:29:27.195Z,99469.94
2022-09-28T09:34:37.916Z,99466.38
2022-09-28T09:40:30.489Z,99470.38
2022-09-28T09:46:12.004Z,99476.97
2022-09-28T09:51:48.792Z,99478.81
2022-09-28T09:56:56.865Z,99484.16
2022-09-28T10:02:28.186Z,99480.75
2022-09-28T10:08:00.073Z,99490.50
2022-09-28T10:13:02.093Z,99487.56
2022-09-28T10:18:10.344Z,99487.31
2022-09-28T10:23:36.807Z,99483.66
2022-09-28T10:28:55.832Z,99476.53
2022-09-28T10:33:58.497Z,99481.81
2022-09-28T10:39:09.310Z,99485.03
2022-09-28T10:44:16.926Z,99494.72
2022-09-28T10:49:47.052Z,99489.38
2022-09-28T10:54:53.759Z,99486.50
2022-09-28T10:59:57.308Z,99494.94
2022-09-28T11:05:27.726Z,99499.47
2022-09-28T11:10:33.207Z,99503.09
2022-09-28T11:15:46.066Z,99503.19
2022-09-28T11:21:14.320Z,99505.81
2022-09-28T11:26:25.211Z,99508.34
2022-09-28T11:31:29.265Z,99515.94
2022-09-28T11:37:11.166Z,99517.41
2022-09-28T11:42:35.539Z,99515.97
2022-09-28T11:47:40.506Z,99508.56
2022-09-28T11:53:10.185Z,99515.44
2022-09-28T11:58:14.320Z,99510.28
2022-09-28T12:03:39.393Z,99515.59
2022-09-28T12:08:47.325Z,99524.41
2022-09-28T12:14:21.577Z,99512.75
2022-09-28T12:19:39.052Z,99515.63
2022-09-28T12:24:45.658Z,99516.66
2022-09-28T12:29:50.401Z,99516.66
2022-09-28T12:34:52.781Z,99514.41
2022-09-28T12:40:09.191Z,99520.47
2022-09-28T12:45:47.920Z,99521.84
2022-09-28T12:51:15.784Z,99509.38
2022-09-28T12:56:29.404Z,99512.91
2022-09-28T13:01:49.871Z,99516.56
2022-09-28T13:07:13.785Z,99520.13
2022-09-28T13:12:44.881Z,99519.44
2022-09-28T13:17:57.835Z,99512.44
2022-09-28T13:23:25.361Z,99508.75
2022-09-28T13:28:43.003Z,99511.63
2022-09-28T13:46:39.614Z,99516.88
2022-09-28T14:04:22.203Z,99523.47
2022-09-28T14:09:48.522Z,99530.00
2022-09-28T14:14:51.828Z,99530.91
2022-09-28T14:20:07.567Z,99527.78
2022-09-28T14:25:25.848Z,99535.38
2022-09-28T14:30:48.169Z,99529.63
2022-09-28T14:35:59.615Z,99543.00
2022-09-28T14:41:10.232Z,99543.28
2022-09-28T14:46:12.251Z,99540.19
2022-09-28T14:51:26.539Z,99541.19
2022-09-28T14:56:32.702Z,99552.78
2022-09-28T15:01:36.148Z,99554.53
2022-09-28T15:06:46.492Z,99545.13
2022-09-28T15:11:47.983Z,99548.66
2022-09-28T15:16:50.308Z,99545.13
2022-09-28T15:21:52.088Z,99549.59
2022-09-28T15:26:53.559Z,99555.66
2022-09-28T15:31:55.748Z,99557.50
2022-09-28T15:36:58.819Z,99564.50
2022-09-28T15:42:01.179Z,99562.00
2022-09-28T15:47:16.223Z,99563.56
2022-09-28T15:52:52.951Z,99571.44
2022-09-28T15:58:12.510Z,99567.03
2022-09-28T16:03:16.840Z,99573.00
2022-09-28T16:08:22.027Z,99577.50
2022-09-28T16:13:24.379Z,99575.97
2022-09-28T16:18:30.204Z,99577.84
2022-09-28T16:23:34.996Z,99579.53
2022-09-28T16:28:36.496Z,99578.75
2022-09-28T16:33:39.785Z,99585.78
2022-09-28T16:38:46.560Z,99591.13
2022-09-28T16:43:50.148Z,99589.41
2022-09-28T16:48:52.001Z,99589.50
2022-09-28T16:54:12.685Z,99587.81
2022-09-28T16:59:15.284Z,99598.34
2022-09-28T17:04:16.871Z,99601.91
2022-09-28T17:09:18.324Z,99600.22
2022-09-28T17:14:23.323Z,99608.13
2022-09-28T17:19:25.782Z,99605.56
2022-09-28T17:24:28.006Z,99607.38
2022-09-28T17:29:30.083Z,99624.00
2022-09-28T17:34:31.787Z,99623.22
2022-09-28T17:39:34.425Z,99615.41
2022-09-28T17:44:36.900Z,99620.66
2022-09-28T17:49:38.782Z,99623.31
2022-09-28T17:54:42.100Z,99622.47
2022-09-28T17:59:43.735Z,99630.34
2022-09-28T18:04:52.243Z,99622.47
2022-09-28T18:09:56.887Z,99630.31
2022-09-28T18:14:59.312Z,99629.41
2022-09-28T18:20:01.468Z,99628.56
2022-09-28T18:25:05.160Z,99628.50
2022-09-28T18:30:07.130Z,99639.78
2022-09-28T18:35:11.740Z,99648.44
2022-09-28T18:40:15.144Z,99648.38
2022-09-28T18:45:18.953Z,99650.91
2022-09-28T18:50:21.278Z,99659.53
2022-09-28T18:55:23.642Z,99668.16
2022-09-28T19:00:26.712Z,99667.16
2022-09-28T19:05:28.584Z,99680.97
2022-09-28T19:10:30.168Z,99675.63
2022-09-28T19:15:32.916Z,99687.69
2022-09-28T19:20:34.445Z,99684.91
2022-09-28T19:25:36.653Z,99683.97
2022-09-28T19:30:40.039Z,99699.53
2022-09-28T19:35:42.105Z,99701.13
2022-09-28T19:40:45.806Z,99701.81
2022-09-28T19:45:52.956Z,99699.13
2022-09-28T19:51:03.946Z,99702.50
2022-09-28T19:56:05.564Z,99710.28
2022-09-28T20:01:07.463Z,99712.81
2022-09-28T20:06:11.015Z,99716.16
2022-09-28T20:11:15.850Z,99717.84
2022-09-28T20:16:20.557Z,99715.06
2022-09-28T20:21:26.510Z,99721.84
2022-09-28T20:26:29.153Z,99727.75
2022-09-28T20:31:31.895Z,99716.34
2022-09-28T20:36:34.836Z,99710.19
2022-09-28T20:41:36.845Z,99722.25
2022-09-28T20:46:39.223Z,99722.19
2022-09-28T20:51:40.883Z,99724.53
2022-09-28T20:56:43.194Z,99730.38
2022-09-28T21:01:45.778Z,99735.50
2022-09-28T21:06:48.577Z,99735.38
2022-09-28T21:11:50.019Z,99732.56
2022-09-28T21:16:53.338Z,99741.97
2022-09-28T21:21:55.294Z,99731.47
2022-09-28T21:26:59.146Z,99732.22
2022-09-28T21:32:02.033Z,99744.09
2022-09-28T21:37:04.094Z,99751.75
2022-09-28T21:42:06.849Z,99747.38
2022-09-28T21:47:09.873Z,99758.56
2022-09-28T21:52:11.357Z,99764.47
2022-09-28T21:57:13.265Z,99766.03
2022-09-28T22:02:15.339Z,99763.25
2022-09-28T22:07:17.866Z,99772.66
2022-09-28T22:12:19.875Z,99773.50
2022-09-28T22:17:22.561Z,99780.22
2022-09-28T22:22:28.942Z,99780.94
2022-09-28T22:27:32.151Z,99773.06
2022-09-28T22:32:33.845Z,99787.75
2022-09-28T22:37:35.888Z,99787.50
2022-09-28T22:42:38.679Z,99798.59
2022-09-28T22:47:40.843Z,99798.41
2022-09-28T22:52:42.466Z,99798.28
2022-09-28T22:57:44.438Z,99801.66
2022-09-28T23:02:46.515Z,99807.59
2022-09-28T23:07:48.959Z,99816.91
2022-09-28T23:12:54.749Z,99807.91
2022-09-28T23:17:56.494Z,99821.63
2022-09-28T23:22:58.315Z,99808.66
2022-09-28T23:27:59.943Z,99811.16
2022-09-28T23:33:02.308Z,99817.09
2022-09-28T23:38:04.617Z,99810.06
2022-09-28T23:43:06.848Z,99816.06
2022-09-28T23:48:09.355Z,99808.22
2022-09-28T23:53:14.413Z,99814.97
2022-09-28T23:58:16.705Z,99813.13
